sensor_id;sensor_type;location;lat;lon;timestamp;pressure;altitude;pressure_sealevel;temperature;humidity
80869;BME280;70295;40.182;44.498;2023-09-30T00:01:54;90282.28;;;20.31;37.26484
80869;BME280;70295;40.182;44.498;2023-09-30T00:03:54;90281.47;;;20.19;37.60566
80869;BME280;70295;40.182;44.498;2023-09-30T00:05:54;90280.84;;;20.13;38.05391
80869;BME280;70295;40.182;44.498;2023-09-30T00:07:54;90282.8;;;20.14;38.28144
80869;BME280;70295;40.182;44.498;2023-09-30T00:09:54;90285.91;;;20.13;38.29219
80869;BME280;70295;40.182;44.498;2023-09-30T00:11:54;90287.61;;;19.98;38.44941
80869;BME280;70295;40.182;44.498;2023-09-30T00:13:54;90290.73;;;19.9;38.78144
80869;BME280;70295;40.182;44.498;2023-09-30T00:15:54;90286.67;;;19.84;38.93476
80869;BME280;70295;40.182;44.498;2023-09-30T00:17:54;90286.74;;;19.83;39.13691
80869;BME280;70295;40.182;44.498;2023-09-30T00:19:54;90288.89;;;19.83;39.31953
80869;BME280;70295;40.182;44.498;2023-09-30T00:21:54;90289.98;;;19.87;39.44648
80869;BME280;70295;40.182;44.498;2023-09-30T00:23:54;90291.45;;;19.93;39.39668
80869;BME280;70295;40.182;44.498;2023-09-30T00:25:54;90284.83;;;19.92;39.32637
80869;BME280;70295;40.182;44.498;2023-09-30T00:27:54;90289.04;;;19.91;39.31465
80869;BME280;70295;40.182;44.498;2023-09-30T00:29:54;90290.73;;;19.89;39.46016
80869;BME280;70295;40.182;44.498;2023-09-30T00:31:54;90292.02;;;19.92;39.55391
80869;BME280;70295;40.182;44.498;2023-09-30T00:33:54;90290.74;;;19.96;39.58027
80869;BME280;70295;40.182;44.498;2023-09-30T00:35:54;90292.81;;;19.98;39.51387
80869;BME280;70295;40.182;44.498;2023-09-30T00:37:54;90288.83;;;19.98;39.51387
80869;BME280;70295;40.182;44.498;2023-09-30T00:39:54;90286.19;;;19.97;39.51289
80869;BME280;70295;40.182;44.498;2023-09-30T00:41:54;90285.03;;;19.95;39.46504
80869;BME280;70295;40.182;44.498;2023-09-30T00:43:54;90285.18;;;19.89;39.48262
80869;BME280;70295;40.182;44.498;2023-09-30T00:47:54;90278.97;;;19.83;39.62422
80869;BME280;70295;40.182;44.498;2023-09-30T00:49:54;90280.34;;;19.81;39.75898
80869;BME280;70295;40.182;44.498;2023-09-30T00:51:54;90276.07;;;19.83;39.84004
80869;BME280;70295;40.182;44.498;2023-09-30T00:53:55;90280.12;;;19.85;39.85273
80869;BME280;70295;40.182;44.498;2023-09-30T00:55:54;90276.05;;;19.87;39.85469
80869;BME280;70295;40.182;44.498;2023-09-30T00:57:54;90278.48;;;19.89;39.88984
80869;BME280;70295;40.182;44.498;2023-09-30T00:59:54;90275.25;;;19.92;39.88203
80869;BME280;70295;40.182;44.498;2023-09-30T01:01:54;90274;;;19.95;39.87324
80869;BME280;70295;40.182;44.498;2023-09-30T01:03:54;90273.52;;;19.98;39.96699
80869;BME280;70295;40.182;44.498;2023-09-30T01:05:54;90270.92;;;19.99;39.99043
80869;BME280;70295;40.182;44.498;2023-09-30T01:07:54;90272.31;;;20;39.91133
80869;BME280;70295;40.182;44.498;2023-09-30T01:09:54;90271.66;;;19.98;39.83027
80869;BME280;70295;40.182;44.498;2023-09-30T01:11:54;90266.23;;;19.98;39.83027
80869;BME280;70295;40.182;44.498;2023-09-30T01:13:54;90262.31;;;19.97;40.00019
80869;BME280;70295;40.182;44.498;2023-09-30T01:15:54;90263.28;;;19.96;40.15742
80869;BME280;70295;40.182;44.498;2023-09-30T01:17:54;90261.11;;;19.96;40.13496
80869;BME280;70295;40.182;44.498;2023-09-30T01:19:54;90258.6;;;19.96;40.08906
80869;BME280;70295;40.182;44.498;2023-09-30T01:23:54;90260.39;;;19.96;40.12324
80869;BME280;70295;40.182;44.498;2023-09-30T01:25:54;90258.41;;;19.96;40.17988
80869;BME280;70295;40.182;44.498;2023-09-30T01:27:54;90264.05;;;19.95;40.20234
80869;BME280;70295;40.182;44.498;2023-09-30T01:29:54;90261.42;;;19.94;40.25703
80869;BME280;70295;40.182;44.498;2023-09-30T01:31:54;90260.58;;;19.92;40.29023
80869;BME280;70295;40.182;44.498;2023-09-30T01:33:54;90259.36;;;19.92;40.28926
80869;BME280;70295;40.182;44.498;2023-09-30T01:35:54;90256.35;;;19.9;40.4582
80869;BME280;70295;40.182;44.498;2023-09-30T01:37:54;90257.36;;;19.89;40.55781
80869;BME280;70295;40.182;44.498;2023-09-30T01:39:54;90259.58;;;19.88;40.67012
80869;BME280;70295;40.182;44.498;2023-09-30T01:41:54;90258.69;;;19.87;40.74824
80869;BME280;70295;40.182;44.498;2023-09-30T01:43:54;90260.91;;;19.86;40.73652
80869;BME280;70295;40.182;44.498;2023-09-30T01:45:54;90263.85;;;19.85;40.71406
80869;BME280;70295;40.182;44.498;2023-09-30T01:47:54;90266.39;;;19.85;40.83711
80869;BME280;70295;40.182;44.498;2023-09-30T01:49:54;90263.8;;;19.83;40.97187
80869;BME280;70295;40.182;44.498;2023-09-30T01:51:54;90269.91;;;19.8;40.99141
80869;BME280;70295;40.182;44.498;2023-09-30T01:53:54;90271.19;;;19.8;41.03633
80869;BME280;70295;40.182;44.498;2023-09-30T01:55:54;90270.47;;;19.8;41.06953
80869;BME280;70295;40.182;44.498;2023-09-30T01:57:54;90268.89;;;19.79;41.2043
80869;BME280;70295;40.182;44.498;2023-09-30T01:59:54;90271.84;;;19.78;41.31758
80869;BME280;70295;40.182;44.498;2023-09-30T02:01:54;90272.27;;;19.76;41.37324
80869;BME280;70295;40.182;44.498;2023-09-30T02:03:54;90271.77;;;19.76;41.36055
80869;BME280;70295;40.182;44.498;2023-09-30T02:05:54;90272.86;;;19.75;41.41621
80869;BME280;70295;40.182;44.498;2023-09-30T02:07:54;90269.31;;;19.74;41.27949
80869;BME280;70295;40.182;44.498;2023-09-30T02:09:54;90268.46;;;19.73;41.14277
80869;BME280;70295;40.182;44.498;2023-09-30T02:11:54;90271.21;;;19.72;41.15351
80869;BME280;70295;40.182;44.498;2023-09-30T02:13:54;90271.03;;;19.72;41.08516
80869;BME280;70295;40.182;44.498;2023-09-30T02:15:54;90271.21;;;19.72;41.18769
80869;BME280;70295;40.182;44.498;2023-09-30T02:17:54;90267.91;;;19.7;41.33223
80869;BME280;70295;40.182;44.498;2023-09-30T02:19:54;90266.39;;;19.68;41.4543
80869;BME280;70295;40.182;44.498;2023-09-30T02:21:54;90270.42;;;19.67;41.52168
80869;BME280;70295;40.182;44.498;2023-09-30T02:23:54;90270.13;;;19.65;41.5207
80869;BME280;70295;40.182;44.498;2023-09-30T02:25:54;90266.68;;;19.66;41.48652
80869;BME280;70295;40.182;44.498;2023-09-30T02:27:54;90270.35;;;19.64;41.3957
80869;BME280;70295;40.182;44.498;2023-09-30T02:29:54;90268.02;;;19.64;41.36055
80869;BME280;70295;40.182;44.498;2023-09-30T02:31:54;90268.42;;;19.63;41.36055
80869;BME280;70295;40.182;44.498;2023-09-30T02:33:54;90269.56;;;19.62;41.47187
80869;BME280;70295;40.182;44.498;2023-09-30T02:35:54;90267.99;;;19.61;41.52754
80869;BME280;70295;40.182;44.498;2023-09-30T02:37:54;90267.02;;;19.59;41.54805
80869;BME280;70295;40.182;44.498;2023-09-30T02:39:53;90272.97;;;19.52;41.64277
80869;BME280;70295;40.182;44.498;2023-09-30T02:47:31;90274.05;;;19.34;42.21309
80869;BME280;70295;40.182;44.498;2023-09-30T02:51:31;90274.66;;;19.32;42.14375
80869;BME280;70295;40.182;44.498;2023-09-30T02:53:31;90279.04;;;19.31;41.98457
80869;BME280;70295;40.182;44.498;2023-09-30T02:55:31;90281.2;;;19.31;41.87129
80869;BME280;70295;40.182;44.498;2023-09-30T03:03:43;90283.17;;;19.24;41.23164
80869;BME280;70295;40.182;44.498;2023-09-30T03:05:43;90284.13;;;19.27;41.23457
80869;BME280;70295;40.182;44.498;2023-09-30T03:07:43;90288.06;;;19.27;41.32637
80869;BME280;70295;40.182;44.498;2023-09-30T03:09:43;90289.2;;;19.26;41.4709
80869;BME280;70295;40.182;44.498;2023-09-30T03:11:43;90290.09;;;19.26;41.57246
80869;BME280;70295;40.182;44.498;2023-09-30T03:13:43;90293.95;;;19.25;41.63984
80869;BME280;70295;40.182;44.498;2023-09-30T03:15:43;90288.27;;;19.24;41.61543
80869;BME280;70295;40.182;44.498;2023-09-30T03:17:43;90293.2;;;19.23;41.55781
80869;BME280;70295;40.182;44.498;2023-09-30T03:19:43;90294.33;;;19.21;41.44453
80869;BME280;70295;40.182;44.498;2023-09-30T03:21:43;90291.98;;;19.21;41.53437
80869;BME280;70295;40.182;44.498;2023-09-30T03:23:43;90291.93;;;19.23;41.84101
80869;BME280;70295;40.182;44.498;2023-09-30T03:25:43;90293.87;;;19.23;41.85273
80869;BME280;70295;40.182;44.498;2023-09-30T03:27:43;90293.2;;;19.22;41.85176
80869;BME280;70295;40.182;44.498;2023-09-30T03:29:43;90293.7;;;19.23;41.87519
80869;BME280;70295;40.182;44.498;2023-09-30T03:31:43;90291.83;;;19.24;41.98945
80869;BME280;70295;40.182;44.498;2023-09-30T03:33:43;90294.47;;;19.26;41.96797
80869;BME280;70295;40.182;44.498;2023-09-30T03:35:43;90292.22;;;19.27;41.86738
80869;BME280;70295;40.182;44.498;2023-09-30T03:39:43;90291.66;;;19.28;41.89082
80869;BME280;70295;40.182;44.498;2023-09-30T03:41:43;90296.61;;;19.3;41.84785
80869;BME280;70295;40.182;44.498;2023-09-30T03:43:43;90292.89;;;19.32;41.71504
80869;BME280;70295;40.182;44.498;2023-09-30T03:45:43;90296;;;19.35;41.57051
80869;BME280;70295;40.182;44.498;2023-09-30T03:47:43;90295.17;;;19.37;41.38105
80869;BME280;70295;40.182;44.498;2023-09-30T03:49:43;90295.64;;;19.39;41.29121
80869;BME280;70295;40.182;44.498;2023-09-30T03:51:43;90300.41;;;19.38;41.15449
80869;BME280;70295;40.182;44.498;2023-09-30T03:53:43;90300.59;;;19.33;41.12812
80869;BME280;70295;40.182;44.498;2023-09-30T03:55:43;90303.85;;;19.33;41.25215
80869;BME280;70295;40.182;44.498;2023-09-30T03:57:43;90305.55;;;19.36;41.27656
80869;BME280;70295;40.182;44.498;2023-09-30T03:59:43;90304.14;;;19.39;41.32539
80869;BME280;70295;40.182;44.498;2023-09-30T04:01:43;90303.75;;;19.43;41.3293
80869;BME280;70295;40.182;44.498;2023-09-30T04:03:43;90300.7;;;19.46;41.24141
80869;BME280;70295;40.182;44.498;2023-09-30T04:05:43;90304.8;;;19.51;41.37031
80869;BME280;70295;40.182;44.498;2023-09-30T04:07:43;90304.25;;;19.62;41.26777
80869;BME280;70295;40.182;44.498;2023-09-30T04:09:43;90307.11;;;19.73;41.14375
80869;BME280;70295;40.182;44.498;2023-09-30T04:11:43;90307.99;;;19.84;40.93867
80869;BME280;70295;40.182;44.498;2023-09-30T04:13:43;90306.28;;;20;40.74922
80869;BME280;70295;40.182;44.498;2023-09-30T04:15:43;90310.02;;;20.15;40.42402
80869;BME280;70295;40.182;44.498;2023-09-30T04:17:43;90308.43;;;20.28;40.24434
80869;BME280;70295;40.182;44.498;2023-09-30T04:19:43;90306.77;;;20.36;39.92207
80869;BME280;70295;40.182;44.498;2023-09-30T04:21:43;90308.69;;;20.41;39.76777
80869;BME280;70295;40.182;44.498;2023-09-30T04:23:43;90309.84;;;20.46;39.56855
80869;BME280;70295;40.182;44.498;2023-09-30T04:25:43;90311.19;;;20.51;39.38105
80869;BME280;70295;40.182;44.498;2023-09-30T04:27:43;90306.83;;;20.65;39.26875
80869;BME280;70295;40.182;44.498;2023-09-30T04:29:43;90307.8;;;20.74;38.95918
80869;BME280;70295;40.182;44.498;2023-09-30T04:31:43;90309.38;;;20.81;38.60176
80869;BME280;70295;40.182;44.498;2023-09-30T04:33:43;90308.02;;;20.93;38.37422
80869;BME280;70295;40.182;44.498;2023-09-30T04:35:43;90313.25;;;21.06;38.18184
80869;BME280;70295;40.182;44.498;2023-09-30T04:37:43;90315.45;;;21.22;37.96797
80869;BME280;70295;40.182;44.498;2023-09-30T04:39:43;90311.8;;;21.36;37.67305
80869;BME280;70295;40.182;44.498;2023-09-30T04:41:43;90314.48;;;21.49;37.43476
80869;BME280;70295;40.182;44.498;2023-09-30T04:43:43;90315.13;;;21.63;37.27559
80869;BME280;70295;40.182;44.498;2023-09-30T04:45:43;90318.06;;;21.72;36.87422
80869;BME280;70295;40.182;44.498;2023-09-30T04:47:43;90318.03;;;21.79;36.69844
80869;BME280;70295;40.182;44.498;2023-09-30T04:49:43;90316.27;;;21.9;36.61738
80869;BME280;70295;40.182;44.498;2023-09-30T04:51:43;90314.79;;;22.03;36.45723
80869;BME280;70295;40.182;44.498;2023-09-30T04:53:43;90314.67;;;22.17;36.22969
80869;BME280;70295;40.182;44.498;2023-09-30T04:55:43;90315.89;;;22.3;35.92109
80869;BME280;70295;40.182;44.498;2023-09-30T04:57:43;90317.87;;;22.43;35.78437
80869;BME280;70295;40.182;44.498;2023-09-30T04:59:43;90314.95;;;22.57;35.48848
80869;BME280;70295;40.182;44.498;2023-09-30T05:01:43;90314.25;;;22.69;35.18965
80869;BME280;70295;40.182;44.498;2023-09-30T05:03:43;90312.68;;;22.71;34.90547
80869;BME280;70295;40.182;44.498;2023-09-30T05:05:43;90315.73;;;22.68;34.73262
80869;BME280;70295;40.182;44.498;2023-09-30T05:07:43;90310.3;;;22.74;34.7375
80869;BME280;70295;40.182;44.498;2023-09-30T05:09:43;90316.14;;;22.79;34.49043
80869;BME280;70295;40.182;44.498;2023-09-30T05:11:43;90315.36;;;22.77;34.46504
80869;BME280;70295;40.182;44.498;2023-09-30T05:13:43;90313.5;;;22.72;34.52949
80869;BME280;70295;40.182;44.498;2023-09-30T05:15:43;90314.88;;;22.82;34.75508
80869;BME280;70295;40.182;44.498;2023-09-30T05:17:43;90312.98;;;22.92;34.27266
80869;BME280;70295;40.182;44.498;2023-09-30T05:19:43;90309.48;;;23.05;34.19062
80869;BME280;70295;40.182;44.498;2023-09-30T05:21:43;90306.06;;;23.22;34.00996
80869;BME280;70295;40.182;44.498;2023-09-30T05:23:43;90306.23;;;23.36;33.74629
80869;BME280;70295;40.182;44.498;2023-09-30T05:25:43;90306;;;23.48;33.71016
80869;BME280;70295;40.182;44.498;2023-09-30T05:27:43;90308.28;;;23.6;33.33125
80869;BME280;70295;40.182;44.498;2023-09-30T05:29:43;90307.44;;;23.59;33.13496
80869;BME280;70295;40.182;44.498;2023-09-30T05:31:43;90309.41;;;23.62;32.71504
80869;BME280;70295;40.182;44.498;2023-09-30T05:33:43;90308.75;;;23.61;32.71406
80869;BME280;70295;40.182;44.498;2023-09-30T05:35:43;90311.02;;;23.66;32.84394
80869;BME280;70295;40.182;44.498;2023-09-30T05:37:43;90310.38;;;23.7;32.80098
80869;BME280;70295;40.182;44.498;2023-09-30T05:39:43;90308.9;;;23.82;32.53535
80869;BME280;70295;40.182;44.498;2023-09-30T05:41:43;90307.5;;;23.97;32.52363
80869;BME280;70295;40.182;44.498;2023-09-30T05:43:43;90306.91;;;24.12;32.4543
80869;BME280;70295;40.182;44.498;2023-09-30T05:45:43;90313.36;;;24.21;32.39277
80869;BME280;70295;40.182;44.498;2023-09-30T05:47:43;90308.43;;;24.32;32.24043
80869;BME280;70295;40.182;44.498;2023-09-30T05:49:43;90308.7;;;24.39;32.13105
80869;BME280;70295;40.182;44.498;2023-09-30T05:51:43;90307.31;;;24.49;32.05781
80869;BME280;70295;40.182;44.498;2023-09-30T05:53:43;90308.02;;;24.59;31.84785
80869;BME280;70295;40.182;44.498;2023-09-30T05:55:43;90311.52;;;24.72;31.62812
80869;BME280;70295;40.182;44.498;2023-09-30T05:57:43;90308.14;;;24.84;31.45332
80869;BME280;70295;40.182;44.498;2023-09-30T05:59:43;90308.28;;;24.95;31.41523
80869;BME280;70295;40.182;44.498;2023-09-30T06:01:43;90311.28;;;25.04;31.31855
80869;BME280;70295;40.182;44.498;2023-09-30T06:03:43;90310.73;;;25.12;31.00312
80869;BME280;70295;40.182;44.498;2023-09-30T06:05:43;90306.28;;;25.08;31.03437
80869;BME280;70295;40.182;44.498;2023-09-30T06:07:42;90308;;;25.14;31.06172
80869;BME280;70295;40.182;44.498;2023-09-30T06:09:43;90307.42;;;25.25;30.94355
80869;BME280;70295;40.182;44.498;2023-09-30T06:11:43;90307.16;;;25.31;30.79805
80869;BME280;70295;40.182;44.498;2023-09-30T06:13:43;90307.87;;;25.39;30.8957
80869;BME280;70295;40.182;44.498;2023-09-30T06:15:43;90308.95;;;25.47;30.85469
80869;BME280;70295;40.182;44.498;2023-09-30T06:17:43;90310.03;;;25.52;30.89277
80869;BME280;70295;40.182;44.498;2023-09-30T06:19:42;90307.14;;;25.57;30.85078
80869;BME280;70295;40.182;44.498;2023-09-30T06:21:43;90311.01;;;25.61;30.77363
80869;BME280;70295;40.182;44.498;2023-09-30T06:23:43;90306.96;;;25.67;30.70918
80869;BME280;70295;40.182;44.498;2023-09-30T06:25:43;90305.97;;;25.73;30.73555
80869;BME280;70295;40.182;44.498;2023-09-30T06:29:43;90302.47;;;25.84;30.62812
80869;BME280;70295;40.182;44.498;2023-09-30T06:31:43;90304.91;;;25.83;30.7082
80869;BME280;70295;40.182;44.498;2023-09-30T06:33:43;90304.77;;;25.82;30.73066
80869;BME280;70295;40.182;44.498;2023-09-30T06:35:43;90308.05;;;25.8;30.76387
80869;BME280;70295;40.182;44.498;2023-09-30T06:37:43;90306.48;;;25.74;30.8166
80869;BME280;70295;40.182;44.498;2023-09-30T06:39:43;90307.7;;;25.72;30.81465
80869;BME280;70295;40.182;44.498;2023-09-30T06:41:43;90306;;;25.68;30.91621
80869;BME280;70295;40.182;44.498;2023-09-30T06:43:43;90308.28;;;25.59;30.9543
80869;BME280;70295;40.182;44.498;2023-09-30T06:45:42;90312.67;;;25.51;30.83516
80869;BME280;70295;40.182;44.498;2023-09-30T06:47:43;90306.23;;;25.39;30.82637
80869;BME280;70295;40.182;44.498;2023-09-30T06:49:43;90307.47;;;25.35;31.01875
80869;BME280;70295;40.182;44.498;2023-09-30T06:51:43;90310.67;;;25.38;31.26289
80869;BME280;70295;40.182;44.498;2023-09-30T06:53:43;90309.58;;;25.43;31.35762
80869;BME280;70295;40.182;44.498;2023-09-30T06:55:43;90307.82;;;25.45;30.93379
80869;BME280;70295;40.182;44.498;2023-09-30T06:57:43;90302.72;;;25.45;30.58906
80869;BME280;70295;40.182;44.498;2023-09-30T06:59:43;90302.52;;;25.43;30.58809
80869;BME280;70295;40.182;44.498;2023-09-30T07:01:43;90295.61;;;25.42;30.63301
80869;BME280;70295;40.182;44.498;2023-09-30T07:03:42;90298.52;;;25.45;30.48555
80869;BME280;70295;40.182;44.498;2023-09-30T07:05:42;90299.83;;;25.47;30.19941
80869;BME280;70295;40.182;44.498;2023-09-30T07:07:42;90293.23;;;25.35;30.0998
80869;BME280;70295;40.182;44.498;2023-09-30T07:09:43;90289.8;;;25.27;30.58809
80869;BME280;70295;40.182;44.498;2023-09-30T07:11:43;90290.44;;;25.28;30.72676
80869;BME280;70295;40.182;44.498;2023-09-30T07:13:42;90291;;;25.31;30.51094
80869;BME280;70295;40.182;44.498;2023-09-30T07:15:43;90286.45;;;25.31;30.3498
80869;BME280;70295;40.182;44.498;2023-09-30T07:17:42;90290.95;;;25.34;30.29414
80869;BME280;70295;40.182;44.498;2023-09-30T07:19:43;90290.13;;;25.35;30.13398
80869;BME280;70295;40.182;44.498;2023-09-30T07:21:43;90285.56;;;25.38;30.0207
80869;BME280;70295;40.182;44.498;2023-09-30T07:23:42;90281.84;;;25.36;30.18086
80869;BME280;70295;40.182;44.498;2023-09-30T07:25:43;90286.55;;;25.37;30.10078
80869;BME280;70295;40.182;44.498;2023-09-30T07:27:43;90281.55;;;25.38;30.05488
80869;BME280;70295;40.182;44.498;2023-09-30T07:29:43;90283.88;;;25.39;30.0334
80869;BME280;70295;40.182;44.498;2023-09-30T07:31:43;90277.94;;;25.35;29.86934
80869;BME280;70295;40.182;44.498;2023-09-30T07:33:43;90271.52;;;25.3;29.78633
80869;BME280;70295;40.182;44.498;2023-09-30T07:35:43;90268.14;;;25.29;29.78535
80869;BME280;70295;40.182;44.498;2023-09-30T07:37:43;90267.75;;;25.24;30.04609
80869;BME280;70295;40.182;44.498;2023-09-30T07:39:42;90267.56;;;25.2;30.01973
80869;BME280;70295;40.182;44.498;2023-09-30T07:41:42;90261.3;;;25.18;30.02949
80869;BME280;70295;40.182;44.498;2023-09-30T07:43:42;90258.17;;;25.18;30.00703
80869;BME280;70295;40.182;44.498;2023-09-30T07:45:42;90257.13;;;25.2;30.14668
80869;BME280;70295;40.182;44.498;2023-09-30T07:49:43;90250.02;;;25.2;29.90547
80869;BME280;70295;40.182;44.498;2023-09-30T07:51:43;90253.28;;;25.2;29.76777
80869;BME280;70295;40.182;44.498;2023-09-30T07:53:42;90250.75;;;25.2;29.64082
80869;BME280;70295;40.182;44.498;2023-09-30T07:55:42;90248.33;;;25.19;29.55976
80869;BME280;70295;40.182;44.498;2023-09-30T07:57:43;90243.56;;;25.16;29.62715
80869;BME280;70295;40.182;44.498;2023-09-30T07:59:42;90239.86;;;25.17;29.82246
80869;BME280;70295;40.182;44.498;2023-09-30T08:01:43;90239.13;;;25.17;30.01777
80869;BME280;70295;40.182;44.498;2023-09-30T08:03:43;90233.89;;;25.14;29.98164
80869;BME280;70295;40.182;44.498;2023-09-30T08:05:42;90240.05;;;25.1;29.86348
80869;BME280;70295;40.182;44.498;2023-09-30T08:07:43;90237.37;;;24.98;29.99336
80869;BME280;70295;40.182;44.498;2023-09-30T08:09:43;90228.09;;;24.9;30.22969
80869;BME280;70295;40.182;44.498;2023-09-30T08:11:42;90232.22;;;24.86;30.17988
80869;BME280;70295;40.182;44.498;2023-09-30T08:13:43;90230.76;;;24.79;30.47383
80869;BME280;70295;40.182;44.498;2023-09-30T08:15:43;90222.71;;;24.77;30.70137
80869;BME280;70295;40.182;44.498;2023-09-30T08:17:43;90222.05;;;24.78;30.63398
80869;BME280;70295;40.182;44.498;2023-09-30T08:19:43;90217.31;;;24.78;30.56562
80869;BME280;70295;40.182;44.498;2023-09-30T08:21:42;90219.89;;;24.8;30.50898
80869;BME280;70295;40.182;44.498;2023-09-30T08:23:43;90219.5;;;24.81;30.56758
80869;BME280;70295;40.182;44.498;2023-09-30T08:25:43;90219.31;;;24.81;30.24629
80869;BME280;70295;40.182;44.498;2023-09-30T08:27:42;90217.91;;;24.75;30.13789
80869;BME280;70295;40.182;44.498;2023-09-30T08:29:43;90215.64;;;24.71;30.14668
80869;BME280;70295;40.182;44.498;2023-09-30T08:31:42;90215.76;;;24.62;30.2668
80869;BME280;70295;40.182;44.498;2023-09-30T08:33:42;90207.94;;;24.57;30.60664
80869;BME280;70295;40.182;44.498;2023-09-30T08:35:43;90208.98;;;24.6;30.36836
80869;BME280;70295;40.182;44.498;2023-09-30T08:37:42;90201.16;;;24.47;30.31367
80869;BME280;70295;40.182;44.498;2023-09-30T08:39:43;90201.45;;;24.4;30.75605
80869;BME280;70295;40.182;44.498;2023-09-30T08:41:42;90198.95;;;24.45;30.78242
80869;BME280;70295;40.182;44.498;2023-09-30T08:43:42;90196.08;;;24.52;30.69551
80869;BME280;70295;40.182;44.498;2023-09-30T08:45:43;90193.58;;;24.59;30.55195
80869;BME280;70295;40.182;44.498;2023-09-30T08:47:42;90194.13;;;24.66;30.33906
80869;BME280;70295;40.182;44.498;2023-09-30T08:49:43;90191.77;;;24.74;30.09101
80869;BME280;70295;40.182;44.498;2023-09-30T08:51:42;90189.17;;;24.77;30.07051
80869;BME280;70295;40.182;44.498;2023-09-30T08:53:42;90190.83;;;24.79;29.86543
80869;BME280;70295;40.182;44.498;2023-09-30T08:55:47;90184.25;;;24.8;29.83125
80869;BME280;70295;40.182;44.498;2023-09-30T08:57:42;90180.96;;;24.8;29.84297
80869;BME280;70295;40.182;44.498;2023-09-30T08:59:43;90175.11;;;24.78;30.02559
80869;BME280;70295;40.182;44.498;2023-09-30T09:01:43;90170.44;;;24.79;30.00312
80869;BME280;70295;40.182;44.498;2023-09-30T09:03:43;90170.83;;;24.82;29.94746
80869;BME280;70295;40.182;44.498;2023-09-30T09:05:43;90163.67;;;24.8;29.78535
80869;BME280;70295;40.182;44.498;2023-09-30T09:07:42;90162.66;;;24.76;29.88691
80869;BME280;70295;40.182;44.498;2023-09-30T09:09:47;90159.23;;;24.76;30.06953
80869;BME280;70295;40.182;44.498;2023-09-30T09:11:43;90154.3;;;24.78;29.93379
80869;BME280;70295;40.182;44.498;2023-09-30T09:15:43;90148.73;;;24.75;29.8166
80869;BME280;70295;40.182;44.498;2023-09-30T09:17:43;90144.29;;;24.74;30.08027
80869;BME280;70295;40.182;44.498;2023-09-30T09:19:42;90142.34;;;24.75;29.9084
80869;BME280;70295;40.182;44.498;2023-09-30T09:23:47;90140.59;;;24.77;30.24238
80869;BME280;70295;40.182;44.498;2023-09-30T09:25:42;90139.14;;;24.77;29.96699
80869;BME280;70295;40.182;44.498;2023-09-30T09:27:43;90135.92;;;24.73;29.87226
80869;BME280;70295;40.182;44.498;2023-09-30T09:29:42;90135.02;;;24.71;29.77851
80869;BME280;70295;40.182;44.498;2023-09-30T09:31:43;90132.5;;;24.73;29.73457
80869;BME280;70295;40.182;44.498;2023-09-30T09:33:42;90128.75;;;24.74;29.60957
80869;BME280;70295;40.182;44.498;2023-09-30T09:35:43;90126.13;;;24.75;29.80488
80869;BME280;70295;40.182;44.498;2023-09-30T09:37:43;90122.63;;;24.78;29.73848
80869;BME280;70295;40.182;44.498;2023-09-30T09:43:42;90120.33;;;24.85;29.46797
80869;BME280;70295;40.182;44.498;2023-09-30T09:45:42;90117.55;;;24.83;29.16816
80869;BME280;70295;40.182;44.498;2023-09-30T09:47:43;90113.67;;;24.79;28.98066
80869;BME280;70295;40.182;44.498;2023-09-30T09:49:42;90105.69;;;24.78;28.94648
80869;BME280;70295;40.182;44.498;2023-09-30T09:51:43;90110.58;;;24.79;28.96992
80869;BME280;70295;40.182;44.498;2023-09-30T09:53:42;90104.7;;;24.79;29.15351
80869;BME280;70295;40.182;44.498;2023-09-30T09:55:42;90100.19;;;24.79;28.82051
80869;BME280;70295;40.182;44.498;2023-09-30T09:57:43;90096.15;;;24.79;28.77461
80869;BME280;70295;40.182;44.498;2023-09-30T09:59:42;90092.3;;;24.77;28.84199
80869;BME280;70295;40.182;44.498;2023-09-30T10:01:42;90094;;;24.77;28.88789
80869;BME280;70295;40.182;44.498;2023-09-30T10:03:43;90090.64;;;24.75;28.93281
80869;BME280;70295;40.182;44.498;2023-09-30T10:05:42;90084.06;;;24.76;29.16328
80869;BME280;70295;40.182;44.498;2023-09-30T10:09:44;90080.99;;;24.78;29.30195
80869;BME280;70295;40.182;44.498;2023-09-30T10:11:42;90080.51;;;24.77;29.27851
80869;BME280;70295;40.182;44.498;2023-09-30T10:15:42;90071.61;;;24.69;29.29609
80869;BME280;70295;40.182;44.498;2023-09-30T10:18:27;90068.8;;;24.68;29.30684
80869;BME280;70295;40.182;44.498;2023-09-30T10:23:42;90057.45;;;24.68;29.44453
80869;BME280;70295;40.182;44.498;2023-09-30T10:25:42;90057.81;;;24.68;29.49043
80869;BME280;70295;40.182;44.498;2023-09-30T10:27:42;90053.77;;;24.69;29.64082
80869;BME280;70295;40.182;44.498;2023-09-30T10:29:43;90049.83;;;24.73;29.60859
80869;BME280;70295;40.182;44.498;2023-09-30T10:35:43;90043.42;;;24.81;29.49922
80869;BME280;70295;40.182;44.498;2023-09-30T10:37:43;90038.99;;;24.84;29.45527
80869;BME280;70295;40.182;44.498;2023-09-30T10:39:52;90036.54;;;24.85;29.38691
80869;BME280;70295;40.182;44.498;2023-09-30T10:43:42;90032.9;;;24.88;29.37812
80869;BME280;70295;40.182;44.498;2023-09-30T10:45:42;90024.48;;;24.88;29.4123
80869;BME280;70295;40.182;44.498;2023-09-30T10:47:42;90024.92;;;24.89;29.34492
80869;BME280;70295;40.182;44.498;2023-09-30T10:49:42;90022.91;;;24.9;29.41328
80869;BME280;70295;40.182;44.498;2023-09-30T10:51:42;90020.19;;;24.92;29.36836